Skip Navigation Links Skip Navigation Links

Current Weather

Baltimore-Washington Intl, Baltimore

For information only: do not use for flight planning or navigation.
Latest weather
Observation time Wednesday, December 2, 2020 9:54 PM EST
Local time Wednesday, December 2, 2020 10:54 PM EST
Flight conditions Visual Meteorological Conditions
Winds
Wind direction West-Southwest (250°)
Wind speed 9 mph
Visibility 10 mi.
Sky condition
Ceiling unlimited
Sky clear
Temperature 38°F
Dewpoint 20°F
Altimeter 30.21 in.Hg
Pressure change last 3 hours-0.02 in.Hg
Pressure rising more slowly
Derived measurements
Relative humidity 48%
Wind chill 31°F
Density altitude -1544 ft.
Sea-level pressure 30.21 in.Hg
Remarks
Automated weather observing station with precipitation discriminator.
METAR KBWI 030254Z 25008KT 10SM CLR 03/M07 A3021 RMK AO2 SLP230 T00331067 51008

Settings

Location code

InnerDrive.Weather 4.0.6770.0 Release CLR 4.0.30319.42000
Copyright ©2018 Inner Drive Technology. All rights reserved. Portions Copyright ©1986-2018 David Braverman.

Find weather

Site navigation


Skip Navigation Links

Place info

Page info

PayPal - The safer, easier way to pay online!

Return home.

Copyright ©2020 Inner Drive Technology. Purveyors of fine, hand-crafted computer software. Page printed 2020-12-03T03:54:01 UTC.